createdAt,value
2022-08-26T00:00:36.747Z,95420.13
2022-08-26T00:05:39.893Z,95411.38
2022-08-26T00:10:43.065Z,95413.06
2022-08-26T00:15:47.109Z,95409.44
2022-08-26T00:20:50.117Z,95413.25
2022-08-26T00:25:52.977Z,95415.97
2022-08-26T00:30:56.956Z,95414.31
2022-08-26T00:35:59.711Z,95424.41
2022-08-26T00:41:03.416Z,95418.97
2022-08-26T00:46:06.552Z,95405.75
2022-08-26T00:51:09.401Z,95411.59
2022-08-26T00:56:13.296Z,95418.38
2022-08-26T01:01:16.210Z,95418.41
2022-08-26T01:06:19.156Z,95417.81
2022-08-26T01:11:22.001Z,95417.56
2022-08-26T01:16:25.969Z,95410.41
2022-08-26T01:21:28.718Z,95415.16
2022-08-26T01:26:32.286Z,95417.78
2022-08-26T01:31:35.625Z,95420.19
2022-08-26T01:36:39.403Z,95419.75
2022-08-26T01:41:42.937Z,95431.38
2022-08-26T01:46:48.883Z,95423.00
2022-08-26T01:51:53.462Z,95413.72
2022-08-26T01:56:56.765Z,95418.09
2022-08-26T02:02:00.072Z,95414.06
2022-08-26T02:07:03.036Z,95423.53
2022-08-26T02:12:06.360Z,95423.22
2022-08-26T02:17:13.214Z,95419.09
2022-08-26T02:22:16.461Z,95413.66
2022-08-26T02:27:19.547Z,95417.88
2022-08-26T02:32:22.336Z,95408.13
2022-08-26T02:37:26.240Z,95416.66
2022-08-26T02:42:29.085Z,95415.44
2022-08-26T02:47:32.442Z,95421.13
2022-08-26T02:52:35.686Z,95414.38
2022-08-26T02:57:39.753Z,95412.19
2022-08-26T03:02:42.761Z,95400.88
2022-08-26T03:07:45.555Z,95405.16
2022-08-26T03:12:49.309Z,95403.78
2022-08-26T03:17:55.120Z,95395.53
2022-08-26T03:23:00.162Z,95395.25
2022-08-26T03:28:03.127Z,95394.81
2022-08-26T03:33:06.005Z,95406.16
2022-08-26T03:38:09.496Z,95405.69
2022-08-26T03:43:16.197Z,95401.22
2022-08-26T03:48:19.177Z,95406.78
2022-08-26T03:53:22.095Z,95395.09
2022-08-26T03:58:25.562Z,95392.72
2022-08-26T04:03:47.725Z,95390.78
2022-08-26T04:08:51.033Z,95393.06
2022-08-26T04:13:54.288Z,95391.91
2022-08-26T04:18:57.654Z,95388.53
2022-08-26T04:24:03.431Z,95400.19
2022-08-26T04:29:07.012Z,95396.69
2022-08-26T04:34:11.136Z,95383.84
2022-08-26T04:39:16.864Z,95390.69
2022-08-26T04:44:22.450Z,95390.56
2022-08-26T04:49:27.714Z,95400.16
2022-08-26T04:54:31.600Z,95398.47
2022-08-26T04:59:39.129Z,95387.34
2022-08-26T05:04:43.958Z,95400.13
2022-08-26T05:09:49.061Z,95403.06
2022-08-26T05:14:53.513Z,95410.25
2022-08-26T05:19:57.216Z,95425.09
2022-08-26T05:25:01.701Z,95416.63
2022-08-26T05:30:06.521Z,95416.41
2022-08-26T05:35:09.351Z,95417.16
2022-08-26T05:40:12.446Z,95419.31
2022-08-26T05:45:15.638Z,95416.38
2022-08-26T05:50:32.001Z,95423.72
2022-08-26T05:55:35.355Z,95424.94
2022-08-26T06:00:38.288Z,95423.47
2022-08-26T06:05:41.150Z,95431.66
2022-08-26T06:10:44.556Z,95436.66
2022-08-26T06:15:49.303Z,95426.75
2022-08-26T06:20:57.614Z,95426.16
2022-08-26T06:26:01.279Z,95431.63
2022-08-26T06:31:06.217Z,95430.56
2022-08-26T06:36:09.132Z,95428.09
2022-08-26T06:41:22.730Z,95423.50
2022-08-26T06:46:26.047Z,95428.81
2022-08-26T06:51:28.940Z,95428.88
2022-08-26T06:56:32.637Z,95430.91
2022-08-26T07:01:35.940Z,95437.16
2022-08-26T07:06:40.005Z,95434.94
2022-08-26T07:11:42.771Z,95434.44
2022-08-26T07:16:47.973Z,95442.66
2022-08-26T07:21:51.001Z,95441.31
2022-08-26T07:26:54.845Z,95438.38
2022-08-26T07:31:57.875Z,95442.00
2022-08-26T07:37:00.763Z,95447.56
2022-08-26T07:42:07.825Z,95441.03
2022-08-26T07:47:24.679Z,95452.22
2022-08-26T07:52:29.299Z,95449.31
2022-08-26T07:57:32.348Z,95435.19
2022-08-26T08:02:35.531Z,95449.88
2022-08-26T08:07:44.909Z,95442.78
2022-08-26T08:12:48.841Z,95441.16
2022-08-26T08:17:54.771Z,95437.38
2022-08-26T08:23:00.490Z,95437.56
2022-08-26T08:28:03.482Z,95441.75
2022-08-26T08:33:06.963Z,95438.91
2022-08-26T08:38:10.584Z,95445.00
2022-08-26T08:43:13.917Z,95444.34
2022-08-26T08:48:17.054Z,95440.78
2022-08-26T08:53:24.813Z,95438.06
2022-08-26T08:58:28.342Z,95431.19
2022-08-26T09:03:33.380Z,95429.84
2022-08-26T09:08:37.258Z,95429.03
2022-08-26T09:13:40.225Z,95433.47
2022-08-26T09:18:46.130Z,95428.13
2022-08-26T09:23:50.219Z,95434.84
2022-08-26T09:28:56.634Z,95435.91
2022-08-26T09:34:00.077Z,95433.34
2022-08-26T09:39:15.127Z,95429.81
2022-08-26T09:44:18.115Z,95431.66
2022-08-26T09:49:21.959Z,95421.72
2022-08-26T09:54:25.433Z,95408.91
2022-08-26T09:59:33.776Z,95413.50
2022-08-26T10:04:38.202Z,95404.84
2022-08-26T10:09:42.306Z,95393.88
2022-08-26T10:19:56.519Z,95385.75
2022-08-26T10:25:00.799Z,95377.03
2022-08-26T10:30:05.815Z,95370.97
2022-08-26T10:35:09.858Z,95369.31
2022-08-26T10:40:12.901Z,95361.31
2022-08-26T10:45:15.684Z,95355.75
2022-08-26T10:50:18.948Z,95354.97
2022-08-26T10:55:22.164Z,95349.16
2022-08-26T11:00:44.264Z,95339.03
2022-08-26T11:05:47.523Z,95334.53
2022-08-26T11:10:50.608Z,95332.59
2022-08-26T11:15:54.671Z,95331.63
2022-08-26T11:20:58.493Z,95316.00
2022-08-26T11:26:01.517Z,95324.38
2022-08-26T11:31:04.757Z,95320.09
2022-08-26T11:36:12.217Z,95310.53
2022-08-26T11:41:16.124Z,95311.50
2022-08-26T11:46:20.725Z,95301.50
2022-08-26T11:51:23.476Z,95304.69
2022-08-26T11:56:26.329Z,95287.69
2022-08-26T12:01:31.603Z,95294.59
2022-08-26T12:06:37.645Z,95295.50
2022-08-26T12:11:48.253Z,95278.78
2022-08-26T12:16:54.160Z,95274.09
2022-08-26T12:21:57.143Z,95259.47
2022-08-26T12:26:59.907Z,95253.84
2022-08-26T12:32:03.907Z,95250.69
2022-08-26T12:37:07.746Z,95251.22
2022-08-26T12:42:11.624Z,95245.28
2022-08-26T12:47:14.434Z,95238.91
2022-08-26T12:52:29.977Z,95229.41
2022-08-26T12:57:36.778Z,95220.00
2022-08-26T13:02:40.074Z,95211.09
2022-08-26T13:07:43.066Z,95200.16
2022-08-26T13:12:46.904Z,95206.75
2022-08-26T13:17:49.704Z,95200.16
2022-08-26T13:22:58.813Z,95196.78
2022-08-26T13:28:02.096Z,95183.16
2022-08-26T13:33:05.587Z,95179.41
2022-08-26T13:38:22.357Z,95196.41
2022-08-26T13:43:37.261Z,95184.72
2022-08-26T13:48:41.138Z,95187.88
2022-08-26T13:53:47.898Z,95183.31
2022-08-26T13:58:50.982Z,95183.84
2022-08-26T14:03:54.003Z,95175.03
2022-08-26T14:08:56.764Z,95170.97
2022-08-26T14:13:59.638Z,95166.41
2022-08-26T14:19:02.511Z,95174.34
2022-08-26T14:24:09.913Z,95171.97
2022-08-26T14:29:14.724Z,95163.22
2022-08-26T14:34:19.590Z,95164.81
2022-08-26T14:39:22.356Z,95156.94
2022-08-26T14:44:25.515Z,95165.13
2022-08-26T14:49:28.316Z,95166.47
2022-08-26T14:54:31.209Z,95170.00
2022-08-26T14:59:34.195Z,95154.63
2022-08-26T15:04:36.985Z,95149.50
2022-08-26T15:09:39.834Z,95144.00
2022-08-26T15:14:42.794Z,95144.38
2022-08-26T15:19:45.908Z,95143.56
2022-08-26T15:24:53.597Z,95130.16
2022-08-26T15:29:56.638Z,95136.47
2022-08-26T15:34:59.425Z,95135.31
2022-08-26T15:40:05.643Z,95124.69
2022-08-26T15:45:08.611Z,95119.56
2022-08-26T15:50:11.361Z,95119.94
2022-08-26T15:55:14.424Z,95114.06
2022-08-26T16:00:17.636Z,95121.50
2022-08-26T16:05:20.622Z,95117.59
2022-08-26T16:10:23.416Z,95103.41
2022-08-26T16:15:26.321Z,95116.78
2022-08-26T16:20:29.071Z,95107.72
2022-08-26T16:25:31.925Z,95112.84
2022-08-26T16:30:35.787Z,95119.78
2022-08-26T16:35:38.625Z,95122.84
2022-08-26T16:40:41.393Z,95123.97
2022-08-26T16:45:44.493Z,95127.47
2022-08-26T16:50:47.683Z,95124.22
2022-08-26T16:55:50.758Z,95117.91
2022-08-26T17:00:54.558Z,95123.69
2022-08-26T17:05:59.422Z,95131.09
2022-08-26T17:11:02.347Z,95130.19
2022-08-26T17:16:08.744Z,95133.28
2022-08-26T17:21:11.833Z,95133.91
2022-08-26T17:26:15.322Z,95141.59
2022-08-26T17:31:18.508Z,95139.50
2022-08-26T17:36:21.369Z,95134.56
2022-08-26T17:41:25.167Z,95138.75
2022-08-26T17:46:28.059Z,95150.72
2022-08-26T17:51:30.952Z,95168.31
2022-08-26T17:56:33.770Z,95181.91
2022-08-26T18:01:36.513Z,95183.38
2022-08-26T18:06:39.318Z,95178.84
2022-08-26T18:11:42.042Z,95175.16
2022-08-26T18:16:44.880Z,95180.84
2022-08-26T18:21:47.725Z,95173.25
2022-08-26T18:26:51.098Z,95174.84
2022-08-26T18:31:53.820Z,95179.88
2022-08-26T18:36:56.985Z,95195.75
2022-08-26T18:41:59.702Z,95206.13
2022-08-26T18:47:02.438Z,95217.09
2022-08-26T18:52:05.417Z,95226.41
2022-08-26T18:57:08.258Z,95253.38
2022-08-26T19:02:11.148Z,95257.59
2022-08-26T19:07:14.593Z,95303.28
2022-08-26T19:12:17.391Z,95290.78
2022-08-26T19:17:22.533Z,95314.19
2022-08-26T19:22:25.684Z,95410.06
2022-08-26T19:27:29.782Z,95363.47
2022-08-26T19:32:32.781Z,95357.88
2022-08-26T19:37:38.371Z,95341.63
2022-08-26T19:42:41.335Z,95321.66
2022-08-26T19:47:44.073Z,95296.13
2022-08-26T19:52:51.258Z,95267.91
2022-08-26T19:57:55.460Z,95261.66
2022-08-26T20:02:58.343Z,95243.78
2022-08-26T20:08:03.592Z,95240.78
2022-08-26T20:13:07.330Z,95252.41
2022-08-26T20:18:25.928Z,95259.59
2022-08-26T20:23:29.606Z,95258.75
2022-08-26T20:28:32.877Z,95259.53
2022-08-26T20:33:45.974Z,95267.59
2022-08-26T20:38:50.375Z,95273.41
2022-08-26T20:43:53.129Z,95284.75
2022-08-26T20:48:57.715Z,95285.84
2022-08-26T20:54:02.513Z,95293.81
2022-08-26T20:59:05.489Z,95299.59
2022-08-26T21:04:08.635Z,95294.78
2022-08-26T21:09:11.827Z,95313.66
2022-08-26T21:14:16.542Z,95313.69
2022-08-26T21:19:20.360Z,95338.72
2022-08-26T21:24:23.134Z,95349.59
2022-08-26T21:29:25.963Z,95356.13
2022-08-26T21:34:29.168Z,95372.28
2022-08-26T21:39:32.024Z,95380.56
2022-08-26T21:44:34.822Z,95366.34
2022-08-26T21:49:37.553Z,95378.63
2022-08-26T21:54:40.594Z,95387.13
2022-08-26T21:59:52.446Z,95387.72
2022-08-26T22:04:56.448Z,95383.47
2022-08-26T22:09:59.325Z,95375.13
2022-08-26T22:15:02.082Z,95375.78
2022-08-26T22:20:05.080Z,95389.22
2022-08-26T22:25:09.456Z,95383.00
2022-08-26T22:30:15.589Z,95389.28
2022-08-26T22:35:28.699Z,95376.28
2022-08-26T22:40:33.246Z,95371.69
2022-08-26T22:45:36.162Z,95369.63
2022-08-26T22:50:39.114Z,95366.13
2022-08-26T22:55:43.512Z,95348.75
2022-08-26T23:00:46.594Z,95360.94
2022-08-26T23:05:55.639Z,95381.41
2022-08-26T23:10:58.715Z,95401.69
2022-08-26T23:16:01.437Z,95400.03
2022-08-26T23:21:04.774Z,95390.47
2022-08-26T23:26:07.753Z,95391.72
2022-08-26T23:31:10.557Z,95382.78
2022-08-26T23:36:17.863Z,95397.50
2022-08-26T23:56:05.778Z,95385.50
